CDT,Max TemperatureF,Mean TemperatureF,Min TemperatureF,Max Dew PointF,MeanDew PointF,Min DewpointF,Max Humidity, Mean Humidity, Min Humidity, Max Sea Level PressureIn, Mean Sea Level PressureIn, Min Sea Level PressureIn, Max VisibilityMiles, Mean VisibilityMiles, Min VisibilityMiles, Max Wind SpeedMPH, Mean Wind SpeedMPH, Max Gust SpeedMPH,PrecipitationIn, CloudCover, Events, WindDirDegrees
2013-3-1,24,22,19,19,16,14,86,76,64,30.36,30.28,30.19,10,10,5,12,7,17,0.00,8,Snow,6
2013-3-2,28,21,14,19,16,10,93,78,64,30.33,30.22,30.06,10,10,10,9,4,,0.00,5,,164
2013-3-3,35,28,21,28,22,18,86,78,64,30.05,29.88,29.72,10,9,7,18,8,25,0.00,2,Rain,133
2013-3-4,33,28,24,28,25,21,93,81,74,29.97,29.80,29.69,10,8,2,20,7,26,0.00,6,Snow,107
2013-3-5,28,24,21,23,20,16,86,78,69,30.35,30.13,29.94,10,8,0,23,17,31,0.00,8,Snow,322
2013-3-6,28,24,19,21,17,16,93,83,69,30.40,30.34,30.25,10,10,10,10,6,17,0.00,6,,67
2013-3-7,39,28,17,30,22,14,93,79,60,30.27,30.19,30.11,10,10,7,16,10,23,0.00,1,,130
2013-3-8,44,34,24,37,29,21,93,81,65,30.20,30.09,29.92,7,6,2,15,8,20,0.26,2,Rain,114
2013-3-9,42,37,32,39,35,28,93,92,87,29.91,29.73,29.62,7,2,0,18,8,23,0.97,8,Fog-Rain-Snow,96
2013-3-10,32,28,23,28,22,19,93,83,80,29.93,29.89,29.79,10,4,1,24,17,34,0.00,8,Snow,358
2013-3-11,30,24,19,23,19,16,86,79,64,29.94,29.87,29.82,10,10,7,17,13,22,0.01,4,Snow,319
2013-3-12,30,26,21,25,20,16,93,76,64,30.27,30.08,29.94,10,7,1,30,15,37,0.00,6,Snow,311
2013-3-13,30,22,15,23,18,12,93,79,64,30.38,30.31,30.16,10,10,7,13,7,17,0.01,2,Snow,228
2013-3-14,55,42,28,45,32,21,93,75,62,30.16,30.06,30.00,10,10,5,15,8,17,0.00,1,,249
2013-3-15,44,40,35,37,35,32,93,87,71,29.99,29.84,29.75,10,6,2,15,6,18,0.00,5,,70
2013-3-16,33,27,21,32,21,12,93,76,64,30.20,30.08,29.87,10,10,3,17,12,25,0.00,7,,1
2013-3-17,35,25,15,28,18,10,87,74,64,30.20,29.96,29.68,10,10,1,20,10,26,0.00,6,Snow,119
2013-3-18,33,25,17,32,17,9,93,74,59,29.99,29.81,29.66,10,8,2,36,22,43,0.00,6,Rain-Snow,299
2013-3-19,35,22,10,19,10,3,79,65,48,30.31,30.14,29.97,10,10,7,21,11,29,0.00,2,Snow,326
2013-3-20,28,18,8,10,6,3,79,61,37,30.34,30.25,30.11,10,10,10,18,13,24,0.00,1,Snow,336
2013-3-21,32,21,10,18,11,3,80,66,47,30.11,30.01,29.94,10,10,10,9,5,,0.00,0,,102
2013-3-22,33,25,17,25,17,12,93,71,55,30.04,30.01,29.98,10,10,10,9,5,,0.00,3,,110
2013-3-23,33,30,26,27,23,21,86,77,60,30.13,30.09,30.04,10,10,4,13,3,18,0.00,7,Snow,15
2013-3-24,28,24,21,25,21,18,93,80,69,30.11,30.05,29.99,10,7,2,18,10,23,0.00,7,Snow,343
2013-3-25,30,26,23,21,20,16,86,75,64,30.31,30.18,30.08,10,9,2,17,13,25,0.01,8,Snow,340
2013-3-26,35,24,12,25,17,9,92,72,48,30.33,30.28,30.22,10,10,10,9,4,,0.00,1,,331
2013-3-27,44,34,24,30,25,19,86,70,46,30.27,30.24,30.20,10,10,7,13,6,21,0.00,1,,124
2013-3-28,53,40,28,37,31,25,93,71,44,30.25,30.22,30.18,10,10,7,12,6,16,0.00,1,,132
2013-3-29,62,48,35,39,35,30,87,63,37,30.21,30.14,30.02,10,10,7,17,6,22,0.00,1,,155
2013-3-30,62,50,37,45,40,34,93,68,34,30.02,29.94,29.90,10,9,5,31,10,40,0.02,3,Rain,290
2013-3-31,44,35,26,36,27,18,100,72,39,30.16,30.00,29.93,10,6,0,18,10,25,0.00,4,Fog-Rain-Snow,329